Prunedale, CA

6:48 PM PDT on August 28, 2014 (GMT -0700)
Monterey Peninsula | Change Station
CLOSE
Current Station
Airport
Location: Monterey,
Elevation: 253 ft
Nearby Weather Stations

Elev 253 ft 36.59 °N, 121.84 °W | Updated 49 minutes ago

Overcast
Overcast
64 °F
Feels Like 64 °F
N
9
Wind Variable Wind from West

Today
High -- | Low -- °F
--% Chance of Precip.
Yesterday
High -- | Low -- °F
Precip. -- in
6:34 AM 7:40 PM
Waxing Crescent, 11% visible
Pressure 30.00 in
Visibility 10.0 miles
Clouds Overcast 1300 ft
Dew Point 57 °F
Humidity 77%
Rainfall 0.00 in
Snow Depth Not available.
UV 0 out of 12
Pollen 7.30 out of 12
Air Quality Not available.
Flu Activity Not available.
SPECI KMRY 290059Z 26008KT 10SM OVC013 18/14 A3000 RMK AO2

More Conditions Fewer Conditions

Pressure 30.00 in
Visibility 10.0 miles
Clouds Overcast 1300 ft
Dew Point 57 °F
Humidity 77%
Rainfall 0.00 in
Snow Depth Not available.
UV 0 out of 12
Pollen 7.30 out of 12
Air Quality Not available.
Flu Activity Not available.
SPECI KMRY 290059Z 26008KT 10SM OVC013 18/14 A3000 RMK AO2

More Conditions Fewer Conditions

10-Day Weather Forecast

Almanac

Astronomy

Aug. 28, 2014 Rise Set
Actual Time 6:34 AM PDT 7:40 PM PDT
Civil Twilight 6:07 AM PDT 8:07 PM PDT
Nautical Twilight 5:36 AM PDT 8:38 PM PDT
Astronomical Twilight 5:03 AM PDT 9:11 PM PDT
Moon 9:26 AM PDT (8/28) 9:13 PM PDT (8/28)
Length of Visible Light 13h 59m
Length of Day
13h 05m
Tomorrow will be 2m 13s shorter.
Waxing Crescent, 11% of the Moon is Illuminated
Today
Waxing Crescent
Sep 2
First Quarter
Sep 8
Full
Sep 15
Last Quarter
Sep 24
New

Today's Extremes

State Highs State Lows

Community

WunderPhotos

Upload Photos

1,748,131 photos uploaded!

Nearby

Snow Depth

Station Depth Elevation
Summit Meadow 0 in 9122 ft
Rubicon #2 0 in 7500 ft
Adin Mountain 0 in 6200 ft

Earthquake Activity

City Distance Mag. Time & Date
Napa, California 109 miles 2.6 11:57 AM PDT
2014-08-27
Soledad, California 34 miles 2.6 12:15 PM PDT
2014-08-26
Napa, California 108 miles 2.5 10:56 AM PDT
2014-08-26
Napa, California 109 miles 3.0 6:45 AM PDT
2014-08-26
Minimum magnitude displayed is 2.5.

Coastal Water Temperatures

Place Temperature
Monterey, CA 64.9 °F
Redwood City, CA 73.9 °F

Nearby Weather Stations